Arden, NY (10910)

5:38 AM EDT on May 30, 2015 (GMT -0400)
N2KI - Skywarn Spotter ID 13-330NYC | | Change Station
CLOSE
Current Station
Personal Weather Station
Location: Washingtonville, NY
Elevation: 300 ft
Nearby Weather Stations

Elev 300 ft 41.42 °N, 74.15 °W | Updated 4 seconds ago

Mostly Cloudy
Mostly Cloudy
62.5 °F
Feels Like 62.5 °F
N
0.0
Wind Variable Wind from WNW
Gusts 0.0 mph

Today
High -- | Low -- °F
--% Chance of Precip.
Yesterday
High -- | Low -- °F
Precip. -- in
5:26 AM 8:22 PM
Waxing Gibbous, 89% visible
Pressure 30.19 in
Visibility 8.0 miles
Clouds Mostly Cloudy 1500 ft
Dew Point 60 °F
Humidity 92%
Rainfall 0.00 in
Snow Depth Not available.
UV 0 out of 12
Pollen 8.70 out of 12
Air Quality Not available.
Flu Activity Sporadic
METAR KSWF 300845Z 00000KT 8SM BKN015 19/17 A3019

More Conditions Fewer Conditions

Pressure 30.19 in
Visibility 8.0 miles
Clouds Mostly Cloudy 1500 ft
Dew Point 60 °F
Humidity 92%
Rainfall 0.00 in
Snow Depth Not available.
UV 0 out of 12
Pollen 8.70 out of 12
Air Quality Not available.
Flu Activity Sporadic
METAR KSWF 300845Z 00000KT 8SM BKN015 19/17 A3019

More Conditions Fewer Conditions

10-Day Weather Forecast

Almanac

Astronomy

May. 30, 2015 Rise Set
Actual Time
Civil Twilight
Nautical Twilight
Astronomical Twilight
Moon
Length of Visible Light
Length of Day
Tomorrow will be .
, % of the Moon is Illuminated

Today's Extremes

State Highs State Lows

Community

WunderPhotos

Upload Photos

1,825,476 photos uploaded!

WunderBlogs® & News

Nearby

Air Quality

  Air Quality AQ Index Pollutant
Not available.

Snow Depth

Station Depth Elevation

Earthquake Activity

City Distance Mag. Time & Date
Minimum magnitude displayed is 2.5.

Coastal Water Temperatures

Place Temperature

Stations

Nearby Weather Stations

Station Location Temp. Windchill Dew Point Humidity Wind Precip. Elev Updated Type